Time;durP1;ratioP1;P1;durP2;ratioP2;P2;SDS_P1;SDS_P2;PMS_P1;PMS_P2;Temp;Humidity;BMP_temperature;BMP_pressure;BME280_temperature;BME280_humidity;BME280_pressure;Samples;Min_cycle;Max_cycle;Signal;HPM_P1;HPM_P2
2023/09/20 00:01:54;;;;;;;8.17;4.23;;;;;;;17.50;100.00;99352.91;5088940;28;20367;-62
2023/09/20 00:04:21;;;;;;;8.10;4.43;;;;;;;17.64;100.00;99354.94;5088842;28;20245;-62
2023/09/20 00:06:48;;;;;;;8.77;4.50;;;;;;;17.72;100.00;99344.69;5088276;28;20456;-62
2023/09/20 00:09:17;;;;;;;7.70;4.73;;;;;;;17.77;100.00;99334.69;5088400;28;20570;-62
2023/09/20 00:11:46;;;;;;;8.00;4.77;;;;;;;17.81;100.00;99328.28;5089031;28;20199;-62
2023/09/20 00:14:13;;;;;;;12.53;4.57;;;;;;;17.79;100.00;99324.22;5088531;28;20211;-62
2023/09/20 00:16:40;;;;;;;8.53;4.97;;;;;;;17.80;100.00;99324.09;5087879;28;20226;-62
2023/09/20 00:19:07;;;;;;;9.20;4.60;;;;;;;17.77;100.00;99326.94;5088808;28;20671;-62
2023/09/20 00:21:34;;;;;;;8.00;4.60;;;;;;;17.77;100.00;99324.34;5088793;28;20674;-62
2023/09/20 00:24:04;;;;;;;8.37;4.67;;;;;;;17.77;100.00;99337.28;5087912;28;20241;-62
2023/09/20 00:26:31;;;;;;;13.53;4.50;;;;;;;17.68;100.00;99343.34;5088360;28;20208;-62
2023/09/20 00:29:04;;;;;;;7.50;4.70;;;;;;;17.68;100.00;99340.75;5088392;28;20208;-62
2023/09/20 00:31:32;;;;;;;6.07;4.00;;;;;;;17.90;100.00;99334.31;5088093;28;20205;-62
2023/09/20 00:33:58;;;;;;;11.17;4.60;;;;;;;17.91;100.00;99324.78;5088047;28;20567;-62
2023/09/20 00:36:25;;;;;;;5.97;4.33;;;;;;;17.82;100.00;99327.31;5088401;28;20612;-61
2023/09/20 00:38:55;;;;;;;8.30;3.90;;;;;;;17.86;100.00;99333.81;5087783;28;20204;-62
2023/09/20 00:41:22;;;;;;;6.83;4.47;;;;;;;17.86;100.00;99328.66;5087788;28;20194;-62
2023/09/20 00:43:52;;;;;;;7.70;4.40;;;;;;;17.93;100.00;99323.66;5088149;28;20240;-62
2023/09/20 00:46:20;;;;;;;6.63;3.97;;;;;;;18.03;100.00;99316.59;5088002;28;20204;-62
2023/09/20 00:48:50;;;;;;;6.90;4.13;;;;;;;18.06;100.00;99312.91;5087369;28;20206;-62
2023/09/20 00:51:18;;;;;;;8.07;4.30;;;;;;;18.00;100.00;99319.50;5087419;28;20934;-62
2023/09/20 00:53:45;;;;;;;6.40;4.10;;;;;;;18.04;100.00;99307.09;5088358;28;20306;-62
2023/09/20 00:56:12;;;;;;;8.43;4.30;;;;;;;18.04;100.00;99305.31;5087148;28;20294;-62
2023/09/20 00:58:39;;;;;;;11.03;4.53;;;;;;;18.15;100.00;99301.66;5088261;28;20216;-61
2023/09/20 01:01:06;;;;;;;7.10;4.63;;;;;;;18.19;100.00;99296.97;5088123;28;20669;-61
2023/09/20 01:03:34;;;;;;;7.53;4.90;;;;;;;18.20;100.00;99283.06;5087439;28;20202;-61
2023/09/20 01:06:04;;;;;;;7.67;4.27;;;;;;;18.21;100.00;99290.69;5087610;28;20205;-61
2023/09/20 01:08:32;;;;;;;7.83;4.27;;;;;;;18.15;100.00;99290.47;5088298;28;20212;-61
2023/09/20 01:11:00;;;;;;;8.90;4.50;;;;;;;18.13;100.00;99282.06;5087914;28;20427;-62
2023/09/20 01:13:27;;;;;;;7.00;4.20;;;;;;;18.08;100.00;99290.28;5087350;28;20631;-62
2023/09/20 01:15:54;;;;;;;10.67;4.57;;;;;;;18.04;100.00;99284.59;5087801;28;20198;-62
2023/09/20 01:18:21;;;;;;;9.40;4.50;;;;;;;17.98;100.00;99285.22;5087975;28;20262;-62
2023/09/20 01:20:49;;;;;;;12.53;4.63;;;;;;;17.96;100.00;99281.16;5087014;28;20709;-62
2023/09/20 01:23:17;;;;;;;7.03;4.33;;;;;;;17.99;100.00;99280.84;5087727;28;20204;-62
2023/09/20 01:25:44;;;;;;;6.03;4.10;;;;;;;18.00;100.00;99278.09;5087716;28;20236;-62
2023/09/20 01:28:12;;;;;;;6.63;4.37;;;;;;;18.03;100.00;99277.00;5087057;28;20204;-62
2023/09/20 01:30:42;;;;;;;6.50;4.00;;;;;;;18.02;100.00;99271.00;5087552;28;20262;-62
2023/09/20 01:33:09;;;;;;;8.10;4.10;;;;;;;17.97;100.00;99273.25;5087767;28;20226;-61
2023/09/20 01:35:38;;;;;;;9.97;4.43;;;;;;;17.85;100.00;99266.72;5087318;28;20204;-62
2023/09/20 01:38:06;;;;;;;5.57;4.07;;;;;;;17.79;100.00;99264.75;5086949;28;20197;-62
2023/09/20 01:40:35;;;;;;;8.10;3.60;;;;;;;17.84;100.00;99268.50;5087808;28;20200;-62
2023/09/20 01:43:05;;;;;;;5.10;3.47;;;;;;;17.82;100.00;99273.00;5087265;28;20201;-62
2023/09/20 01:45:34;;;;;;;7.23;4.17;;;;;;;17.94;100.00;99276.13;5087122;28;20718;-62
2023/09/20 01:48:04;;;;;;;8.73;4.30;;;;;;;17.95;100.00;99279.53;5087369;28;20217;-61
2023/09/20 01:50:31;;;;;;;13.97;4.00;;;;;;;17.87;100.00;99277.72;5088308;28;20215;-62
2023/09/20 01:53:00;;;;;;;9.47;4.33;;;;;;;17.82;100.00;99277.38;5086763;28;20205;-62
2023/09/20 01:55:31;;;;;;;8.33;4.73;;;;;;;17.77;100.00;99272.63;5087501;28;20208;-62
2023/09/20 01:58:00;;;;;;;7.57;4.63;;;;;;;17.75;100.00;99271.16;5088082;28;20301;-62
2023/09/20 02:00:30;;;;;;;9.57;4.50;;;;;;;17.75;100.00;99269.38;5086837;28;20264;-62
2023/09/20 02:03:00;;;;;;;6.37;4.30;;;;;;;17.63;100.00;99270.59;5089875;28;20233;-61
2023/09/20 02:05:28;;;;;;;7.23;4.93;;;;;;;17.49;100.00;99271.16;5091234;28;20732;-61
2023/09/20 02:07:56;;;;;;;8.00;5.03;;;;;;;17.64;100.00;99273.03;5090718;28;20200;-62
2023/09/20 02:10:23;;;;;;;7.83;4.90;;;;;;;17.71;100.00;99286.16;5090788;28;20627;-62
2023/09/20 02:12:51;;;;;;;9.07;5.37;;;;;;;17.73;100.00;99297.16;5091131;28;20209;-61
2023/09/20 02:15:20;;;;;;;10.07;5.83;;;;;;;17.76;100.00;99304.59;5091141;28;20689;-61
2023/09/20 02:17:48;;;;;;;9.03;5.30;;;;;;;17.77;100.00;99308.84;5090045;28;20210;-61
2023/09/20 02:20:19;;;;;;;9.90;5.70;;;;;;;17.77;100.00;99314.00;5091069;28;20603;-62
2023/09/20 02:22:47;;;;;;;7.90;5.23;;;;;;;17.80;100.00;99312.91;5090979;28;20199;-62
2023/09/20 02:25:20;;;;;;;9.47;5.47;;;;;;;17.82;100.00;99316.16;5089757;28;20237;-62
2023/09/20 02:27:47;;;;;;;12.03;5.23;;;;;;;17.83;100.00;99318.59;5090856;28;20202;-62
2023/09/20 02:30:16;;;;;;;9.67;5.00;;;;;;;17.86;100.00;99307.97;5090918;28;20211;-62
2023/09/20 02:32:45;;;;;;;8.93;5.60;;;;;;;17.82;100.00;99306.63;5089787;28;20257;-62
2023/09/20 02:35:12;;;;;;;10.73;6.10;;;;;;;17.78;100.00;99307.91;5090407;28;20686;-62
2023/09/20 02:37:40;;;;;;;13.20;5.93;;;;;;;17.76;100.00;99316.75;5090683;28;20204;-62
2023/09/20 02:40:12;;;;;;;8.50;5.27;;;;;;;17.74;100.00;99323.81;5090072;28;20279;-62
2023/09/20 02:42:44;;;;;;;11.03;5.77;;;;;;;17.71;100.00;99319.75;5090607;28;20205;-62
2023/09/20 02:45:12;;;;;;;11.37;5.80;;;;;;;17.80;100.00;99313.75;5090450;28;20234;-62
2023/09/20 02:47:40;;;;;;;8.73;5.60;;;;;;;17.85;100.00;99316.66;5090324;28;20293;-62
2023/09/20 02:50:11;;;;;;;11.10;6.10;;;;;;;17.77;100.00;99316.59;5089820;28;20286;-61
2023/09/20 02:52:38;;;;;;;10.43;5.63;;;;;;;17.67;100.00;99308.09;5090305;28;20205;-61
2023/09/20 02:55:07;;;;;;;10.20;5.93;;;;;;;17.58;100.00;99314.19;5090300;28;20281;-62
2023/09/20 02:57:34;;;;;;;9.63;5.47;;;;;;;17.53;100.00;99303.47;5089410;28;20217;-62
2023/09/20 03:00:06;;;;;;;10.40;5.57;;;;;;;17.50;100.00;99306.38;5090224;28;20239;-62
2023/09/20 03:02:33;;;;;;;13.27;5.73;;;;;;;17.42;100.00;99302.75;5090539;28;20646;-61
2023/09/20 03:05:00;;;;;;;14.27;6.13;;;;;;;17.46;100.00;99310.22;5089190;28;20243;-62
2023/09/20 03:07:28;;;;;;;11.73;5.93;;;;;;;17.46;100.00;99317.97;5089832;28;20619;-62
2023/09/20 03:09:54;;;;;;;10.70;5.47;;;;;;;17.49;100.00;99320.25;5090093;28;20423;-61
2023/09/20 03:12:22;;;;;;;11.27;5.97;;;;;;;17.52;100.00;99322.53;5089608;28;20200;-61
2023/09/20 03:14:53;;;;;;;12.93;6.80;;;;;;;17.54;100.00;99325.78;5088750;28;20320;-61
2023/09/20 03:17:20;;;;;;;11.67;6.50;;;;;;;17.58;100.00;99324.53;5089943;28;20231;-62
2023/09/20 03:19:53;;;;;;;10.40;5.63;;;;;;;17.58;100.00;99327.13;5089580;28;20196;-61
2023/09/20 03:22:21;;;;;;;8.80;5.30;;;;;;;17.56;100.00;99337.59;5089080;28;20210;-61
2023/09/20 03:24:51;;;;;;;10.07;5.87;;;;;;;17.59;100.00;99326.16;5089867;28;20793;-61
2023/09/20 03:27:18;;;;;;;11.00;5.80;;;;;;;17.63;100.00;99320.53;5090112;28;20207;-61
2023/09/20 03:29:46;;;;;;;8.70;5.77;;;;;;;17.63;100.00;99322.31;5088580;28;20195;-61
2023/09/20 03:32:15;;;;;;;12.73;6.60;;;;;;;17.65;100.00;99317.78;5089748;28;20202;-62
2023/09/20 03:34:41;;;;;;;13.27;6.00;;;;;;;17.54;100.00;99305.94;5089373;28;20215;-61
2023/09/20 03:37:10;;;;;;;8.13;5.13;;;;;;;17.54;100.00;99305.09;5088689;28;20199;-61
2023/09/20 03:39:37;;;;;;;11.03;6.10;;;;;;;17.51;100.00;99313.16;5089291;28;20201;-61
2023/09/20 03:42:07;;;;;;;9.77;6.27;;;;;;;17.48;100.00;99313.44;5089276;28;20606;-61
2023/09/20 03:44:35;;;;;;;11.97;5.50;;;;;;;17.50;100.00;99316.69;5088684;28;20738;-62
2023/09/20 03:47:01;;;;;;;10.13;5.97;;;;;;;17.41;100.00;99319.22;5088579;28;20632;-62
2023/09/20 03:49:28;;;;;;;9.20;5.70;;;;;;;17.42;100.00;99331.19;5089594;28;20201;-61
2023/09/20 03:51:55;;;;;;;10.70;6.37;;;;;;;17.42;100.00;99320.84;5089172;28;20203;-61
2023/09/20 03:54:24;;;;;;;12.27;6.20;;;;;;;17.51;100.00;99320.91;5088229;28;20979;-61
2023/09/20 03:56:51;;;;;;;10.57;6.00;;;;;;;17.53;100.00;99321.56;5089252;28;20223;-61
2023/09/20 03:59:19;;;;;;;10.00;5.77;;;;;;;17.54;100.00;99328.34;5089154;28;20203;-61
2023/09/20 04:01:46;;;;;;;10.07;5.63;;;;;;;17.50;100.00;99327.84;5087955;28;20213;-61
2023/09/20 04:04:16;;;;;;;8.37;5.63;;;;;;;17.53;100.00;99327.56;5088948;28;20635;-61
2023/09/20 04:06:45;;;;;;;11.87;5.70;;;;;;;17.56;100.00;99326.44;5089126;28;20198;-61
2023/09/20 04:09:13;;;;;;;10.10;5.83;;;;;;;17.51;100.00;99324.31;5088313;28;20294;-61
2023/09/20 04:11:41;;;;;;;8.30;4.93;;;;;;;17.43;100.00;99327.66;5088348;28;20205;-61
2023/09/20 04:14:08;;;;;;;8.90;5.50;;;;;;;17.46;100.00;99336.06;5088524;28;20195;-61
2023/09/20 04:16:39;;;;;;;8.10;5.27;;;;;;;17.46;100.00;99326.53;5088363;28;20211;-61
2023/09/20 04:19:06;;;;;;;8.53;5.10;;;;;;;17.33;100.00;99334.66;5088072;28;20199;-61
2023/09/20 04:21:33;;;;;;;8.93;5.63;;;;;;;17.29;100.00;99330.75;5088675;28;20207;-61
2023/09/20 04:24:00;;;;;;;9.20;5.97;;;;;;;17.30;100.00;99342.69;5088677;28;20202;-61
2023/09/20 04:26:27;;;;;;;10.10;5.90;;;;;;;17.26;100.00;99336.22;5087106;28;20228;-61
2023/09/20 04:28:55;;;;;;;9.97;5.87;;;;;;;17.26;100.00;99341.38;5088511;28;20207;-61
2023/09/20 04:31:23;;;;;;;9.13;5.53;;;;;;;17.19;100.00;99336.00;5088495;28;20201;-61
2023/09/20 04:33:52;;;;;;;9.93;5.80;;;;;;;17.18;100.00;99333.53;5087732;28;20266;-61
2023/09/20 04:36:19;;;;;;;11.27;5.60;;;;;;;17.17;100.00;99326.75;5088014;28;20737;-61
2023/09/20 04:38:46;;;;;;;11.63;5.53;;;;;;;17.16;100.00;99338.03;5088510;28;20206;-61
2023/09/20 04:41:13;;;;;;;8.87;5.20;;;;;;;17.11;100.00;99337.69;5087678;28;20207;-61
2023/09/20 04:43:40;;;;;;;10.73;5.47;;;;;;;17.10;100.00;99341.22;5087814;28;20769;-61
2023/09/20 04:46:07;;;;;;;16.83;5.77;;;;;;;17.11;100.00;99332.53;5088287;28;20299;-60
2023/09/20 04:48:34;;;;;;;8.80;5.77;;;;;;;17.14;100.00;99332.22;5087826;28;20766;-61
2023/09/20 04:51:02;;;;;;;10.93;5.90;;;;;;;17.15;100.00;99333.84;5087358;28;20201;-61
2023/09/20 04:53:30;;;;;;;10.03;5.80;;;;;;;17.12;100.00;99334.13;5088061;28;20199;-61
2023/09/20 04:55:57;;;;;;;9.70;5.40;;;;;;;17.12;100.00;99341.88;5088240;28;20244;-61
2023/09/20 04:58:24;;;;;;;9.87;5.33;;;;;;;17.07;100.00;99341.50;5087373;28;20244;-61
2023/09/20 05:00:51;;;;;;;8.40;5.33;;;;;;;17.07;100.00;99337.16;5087840;28;20199;-61
2023/09/20 05:03:19;;;;;;;8.47;4.87;;;;;;;17.07;100.00;99341.50;5088200;28;20194;-60
2023/09/20 05:05:47;;;;;;;9.80;5.40;;;;;;;17.06;100.00;99347.63;5087397;28;20563;-61
2023/09/20 05:08:16;;;;;;;9.47;4.97;;;;;;;17.07;100.00;99351.84;5087785;28;20296;-60
2023/09/20 05:10:43;;;;;;;7.83;5.20;;;;;;;17.08;100.00;99348.31;5088119;28;20254;-61
2023/09/20 05:13:10;;;;;;;8.60;5.43;;;;;;;17.13;100.00;99351.25;5087553;28;20777;-60
2023/09/20 05:15:37;;;;;;;7.83;5.30;;;;;;;17.14;100.00;99347.72;5087995;28;20238;-61
2023/09/20 05:18:05;;;;;;;9.73;4.90;;;;;;;17.19;100.00;99361.00;5087586;28;20200;-61
2023/09/20 05:20:32;;;;;;;7.10;4.83;;;;;;;17.27;100.00;99353.34;5087971;28;20228;-61
2023/09/20 05:22:58;;;;;;;7.67;4.63;;;;;;;17.33;100.00;99357.91;5087845;28;20208;-60
2023/09/20 05:25:27;;;;;;;7.00;4.60;;;;;;;17.43;100.00;99363.03;5087855;28;20717;-60
2023/09/20 05:27:54;;;;;;;9.20;3.87;;;;;;;17.57;100.00;99354.75;5087891;28;20201;-60
2023/09/20 05:30:21;;;;;;;7.17;4.03;;;;;;;17.75;100.00;99357.31;5087688;28;20207;-60
2023/09/20 05:32:51;;;;;;;6.70;3.87;;;;;;;18.00;100.00;99360.88;5087610;28;20715;-61
2023/09/20 05:35:18;;;;;;;7.30;3.87;;;;;;;18.35;100.00;99358.34;5088255;28;20202;-61
2023/09/20 05:37:45;;;;;;;13.03;3.97;;;;;;;18.63;100.00;99364.16;5089940;28;20199;-61
2023/09/20 05:40:17;;;;;;;7.70;3.43;;;;;;;18.82;100.00;99363.94;5091715;28;20198;-61
2023/09/20 05:42:45;;;;;;;7.17;3.03;;;;;;;19.07;100.00;99364.81;5092007;28;20239;-61
2023/09/20 05:45:12;;;;;;;5.50;3.13;;;;;;;19.21;100.00;99371.97;5091523;28;20246;-61
2023/09/20 05:47:39;;;;;;;4.43;3.00;;;;;;;19.29;100.00;99372.97;5091737;28;20208;-61
2023/09/20 05:50:10;;;;;;;6.60;3.20;;;;;;;19.40;100.00;99375.22;5091214;28;20649;-61
2023/09/20 05:52:40;;;;;;;5.57;3.23;;;;;;;19.43;100.00;99377.50;5091506;28;20200;-60
2023/09/20 05:55:13;;;;;;;5.50;3.67;;;;;;;19.55;100.00;99384.00;5091628;28;20205;-60
2023/09/20 05:57:40;;;;;;;5.13;3.00;;;;;;;19.74;100.00;99376.91;5091797;28;20291;-60
2023/09/20 06:00:16;;;;;;;4.50;3.03;;;;;;;19.93;100.00;99392.16;5091441;28;20225;-61
2023/09/20 06:02:43;;;;;;;7.30;3.80;;;;;;;20.01;100.00;99392.16;5091427;28;20200;-60
2023/09/20 06:05:11;;;;;;;5.50;3.40;;;;;;;20.15;100.00;99395.03;5091042;28;20207;-60
2023/09/20 06:07:38;;;;;;;6.40;3.80;;;;;;;20.36;100.00;99403.09;5091173;28;20223;-60
2023/09/20 06:10:06;;;;;;;5.67;3.40;;;;;;;20.56;100.00;99403.56;5091187;28;20363;-60
2023/09/20 06:12:33;;;;;;;8.03;4.00;;;;;;;20.56;100.00;99409.56;5091128;28;20207;-61
2023/09/20 06:14:59;;;;;;;6.27;4.40;;;;;;;20.69;100.00;99409.06;5090976;28;20215;-61
2023/09/20 06:17:31;;;;;;;6.10;3.47;;;;;;;20.62;100.00;99412.47;5091097;28;20219;-60
2023/09/20 06:19:59;;;;;;;6.93;3.23;;;;;;;20.58;100.00;99419.78;5091043;28;20291;-60
2023/09/20 06:22:28;;;;;;;8.13;4.00;;;;;;;20.52;100.00;99410.88;5091085;28;20215;-61
2023/09/20 06:24:56;;;;;;;6.47;3.77;;;;;;;20.65;100.00;99412.13;5090933;28;20200;-60
2023/09/20 06:27:23;;;;;;;5.50;3.60;;;;;;;20.72;100.00;99420.91;5091352;28;20232;-60
2023/09/20 06:29:51;;;;;;;6.80;4.27;;;;;;;20.86;100.00;99422.78;5090711;28;20220;-61
2023/09/20 06:32:18;;;;;;;5.53;3.70;;;;;;;21.00;100.00;99422.09;5090979;28;20533;-60
2023/09/20 06:34:46;;;;;;;6.40;4.00;;;;;;;21.02;100.00;99433.09;5090630;28;20208;-60
2023/09/20 06:37:13;;;;;;;5.53;3.70;;;;;;;21.27;100.00;99432.19;5090527;28;20202;-60
2023/09/20 06:39:41;;;;;;;7.13;3.67;;;;;;;21.38;100.00;99430.03;5090556;28;20232;-60
2023/09/20 06:42:08;;;;;;;5.00;3.23;;;;;;;21.45;100.00;99441.34;5090411;28;20209;-60
2023/09/20 06:44:38;;;;;;;9.70;4.13;;;;;;;21.65;100.00;99444.31;5090731;28;20213;-60
2023/09/20 06:47:06;;;;;;;4.73;3.20;;;;;;;21.93;100.00;99444.59;5090482;28;20234;-60
2023/09/20 06:49:33;;;;;;;6.70;3.45;;;;;;;21.89;100.00;99450.31;5089267;28;20205;-60
2023/09/20 06:52:03;;;;;;;5.97;3.42;;;;;;;22.07;100.00;99450.81;5090760;28;20210;-61
2023/09/20 06:54:30;;;;;;;7.35;2.88;;;;;;;22.27;100.00;99453.75;5090462;28;20679;-60
2023/09/20 06:57:02;;;;;;;4.40;3.15;;;;;;;22.38;100.00;99461.16;5090344;28;20205;-60
2023/09/20 06:59:29;;;;;;;5.93;3.28;;;;;;;22.70;100.00;99464.41;5090293;28;20246;-60
2023/09/20 07:01:56;;;;;;;4.78;2.97;;;;;;;22.51;100.00;99463.13;5090052;28;20719;-60
2023/09/20 07:04:23;;;;;;;4.18;2.67;;;;;;;22.80;100.00;99466.72;5090586;28;20252;-60
2023/09/20 07:06:50;;;;;;;4.00;2.80;;;;;;;22.81;100.00;99469.16;5090008;28;20234;-60
2023/09/20 07:09:19;;;;;;;3.97;2.90;;;;;;;23.13;100.00;99472.41;5090118;28;20206;-60
2023/09/20 07:11:46;;;;;;;3.95;2.60;;;;;;;23.18;100.00;99474.44;5090028;28;20198;-60
2023/09/20 07:14:14;;;;;;;3.45;2.78;;;;;;;23.35;100.00;99475.84;5089746;28;20202;-60
2023/09/20 07:16:40;;;;;;;5.10;2.70;;;;;;;23.43;100.00;99477.56;5090052;28;20198;-60
2023/09/20 07:19:11;;;;;;;5.03;2.70;;;;;;;23.53;100.00;99478.06;5089605;28;20198;-60
2023/09/20 07:21:38;;;;;;;5.60;2.97;;;;;;;23.79;100.00;99471.50;5089885;28;20594;-60
2023/09/20 07:24:06;;;;;;;5.45;3.10;;;;;;;24.06;100.00;99477.78;5089771;28;20206;-60
2023/09/20 07:26:38;;;;;;;3.60;2.33;;;;;;;24.28;100.00;99481.16;5089851;28;20283;-60
2023/09/20 07:29:05;;;;;;;3.13;2.10;;;;;;;24.39;97.10;99488.47;5089639;28;20198;-60
2023/09/20 07:31:36;;;;;;;4.90;2.67;;;;;;;24.34;98.97;99478.59;5089844;28;20238;-61
2023/09/20 07:34:04;;;;;;;4.20;2.60;;;;;;;24.73;99.29;99486.94;5089641;28;20474;-61
2023/09/20 07:36:33;;;;;;;2.80;2.05;;;;;;;24.94;95.67;99489.44;5089502;28;20220;-60
2023/09/20 07:39:01;;;;;;;3.35;2.10;;;;;;;25.05;92.74;99496.75;5089389;28;20285;-60
2023/09/20 07:41:27;;;;;;;4.22;2.50;;;;;;;25.21;91.77;99498.22;5089584;28;20206;-60
2023/09/20 07:43:55;;;;;;;3.70;2.17;;;;;;;25.33;97.41;99490.63;5089377;28;20210;-60
2023/09/20 07:46:23;;;;;;;5.25;2.83;;;;;;;25.18;89.43;99492.59;5089133;28;20226;-60
2023/09/20 07:48:50;;;;;;;3.47;2.47;;;;;;;25.07;89.85;99492.13;5089644;28;20562;-60
2023/09/20 07:51:24;;;;;;;5.97;2.50;;;;;;;25.32;90.23;99498.69;5089250;28;20476;-60
2023/09/20 07:57:13;;;;;;;3.92;2.58;;;;;;;25.70;87.41;99501.59;5088881;28;20260;-60
2023/09/20 07:59:42;;;;;;;4.47;2.70;;;;;;;25.69;88.22;99500.78;5088899;28;20198;-61
2023/09/20 08:02:09;;;;;;;3.58;2.35;;;;;;;25.87;87.29;99500.25;5088774;28;20213;-60
2023/09/20 08:04:37;;;;;;;4.22;2.50;;;;;;;25.87;86.56;99497.63;5088889;28;20267;-60
2023/09/20 08:07:06;;;;;;;3.97;2.40;;;;;;;26.19;91.37;99495.22;5088983;28;20229;-60
2023/09/20 08:09:34;;;;;;;3.95;2.33;;;;;;;26.01;84.21;99498.44;5088765;28;20199;-58
2023/09/20 08:12:01;;;;;;;5.32;2.33;;;;;;;25.88;85.03;99496.59;5088935;28;20194;-59
2023/09/20 08:14:28;;;;;;;6.75;3.85;;;;;;;26.10;84.79;99488.56;5089113;28;20195;-60
2023/09/20 08:19:42;;;;;;;6.13;2.38;;;;;;;26.73;84.58;99486.28;5089167;28;20205;-59
2023/09/20 08:22:10;;;;;;;4.90;2.40;;;;;;;26.74;84.85;99487.91;5088605;28;20274;-59
2023/09/20 09:00:22;;;;;;;3.88;1.92;;;;;;;28.94;71.54;99492.44;5088327;28;20263;-60
2023/09/20 09:02:54;;;;;;;4.35;2.20;;;;;;;29.15;69.76;99482.50;5088202;28;20633;-61
2023/09/20 09:05:24;;;;;;;3.42;2.20;;;;;;;28.92;67.19;99473.44;5088128;28;20974;-60
2023/09/20 09:07:51;;;;;;;2.20;1.75;;;;;;;28.73;74.07;99479.75;5087787;28;20240;-61
2023/09/20 09:10:18;;;;;;;4.72;1.92;;;;;;;28.61;68.90;99477.84;5087815;28;20213;-61
2023/09/20 09:12:45;;;;;;;3.13;2.03;;;;;;;28.93;74.50;99461.09;5087577;28;20202;-61
2023/09/20 09:15:16;;;;;;;3.90;2.05;;;;;;;28.98;72.82;99466.50;5087893;28;20206;-61
2023/09/20 09:17:44;;;;;;;3.80;2.00;;;;;;;29.13;69.16;99474.03;5087666;28;20222;-61
2023/09/20 09:20:13;;;;;;;4.35;2.10;;;;;;;29.02;71.32;99468.47;5088009;28;20255;-61
2023/09/20 09:22:42;;;;;;;2.75;1.80;;;;;;;28.97;61.61;99476.19;5087878;28;20198;-61
2023/09/20 09:25:12;;;;;;;2.63;1.92;;;;;;;28.93;66.27;99459.25;5087896;28;20206;-61
2023/09/20 09:27:40;;;;;;;3.47;2.10;;;;;;;28.90;64.33;99459.69;5087593;28;20621;-61
2023/09/20 09:30:09;;;;;;;2.42;2.13;;;;;;;29.02;63.92;99463.22;5087505;28;20201;-61
2023/09/20 09:32:36;;;;;;;2.42;1.88;;;;;;;29.41;70.47;99461.09;5087927;28;20252;-61
2023/09/20 09:35:06;;;;;;;2.67;1.90;;;;;;;29.37;64.74;99459.91;5087900;28;20198;-61
2023/09/20 09:37:33;;;;;;;3.45;2.15;;;;;;;29.54;63.28;99458.25;5087770;28;20198;-61
2023/09/20 09:40:02;;;;;;;4.15;1.92;;;;;;;29.59;67.09;99449.69;5087867;28;20201;-61
2023/09/20 09:42:29;;;;;;;3.22;2.00;;;;;;;29.89;64.82;99454.09;5088019;28;20206;-61
2023/09/20 09:44:56;;;;;;;2.78;2.00;;;;;;;29.80;63.23;99450.19;5087908;28;20494;-61
2023/09/20 09:47:24;;;;;;;3.72;2.25;;;;;;;29.79;65.22;99441.50;5087702;28;20283;-61
2023/09/20 09:49:53;;;;;;;4.00;2.10;;;;;;;29.51;58.44;99450.78;5087589;28;20284;-61
2023/09/20 09:52:23;;;;;;;5.10;2.40;;;;;;;29.58;58.47;99441.97;5087599;28;20205;-61
2023/09/20 09:54:52;;;;;;;3.25;2.10;;;;;;;29.62;60.29;99443.97;5087687;28;20659;-61
2023/09/20 09:57:20;;;;;;;2.40;2.03;;;;;;;29.61;62.41;99438.91;5087309;28;20221;-61
2023/09/20 09:59:48;;;;;;;4.00;2.08;;;;;;;29.49;58.89;99436.25;5086284;28;20668;-61
2023/09/20 10:02:18;;;;;;;4.32;2.20;;;;;;;29.36;59.99;99439.09;5086529;28;20645;-61
2023/09/20 10:04:51;;;;;;;3.17;2.17;;;;;;;29.85;61.06;99445.06;5087700;28;20202;-61
2023/09/20 10:07:22;;;;;;;3.05;2.10;;;;;;;30.01;60.42;99444.34;5087364;28;20725;-61
2023/09/20 10:09:52;;;;;;;3.50;2.20;;;;;;;30.20;57.23;99447.69;5087368;28;20255;-61
2023/09/20 10:12:23;;;;;;;3.42;2.30;;;;;;;30.34;58.79;99438.53;5087253;28;20578;-61
2023/09/20 10:14:51;;;;;;;3.38;2.20;;;;;;;30.09;62.02;99435.31;5087215;28;20578;-61
2023/09/20 10:17:20;;;;;;;3.13;2.13;;;;;;;30.19;56.19;99446.06;5087473;28;20657;-61
2023/09/20 10:19:50;;;;;;;2.50;2.22;;;;;;;30.50;60.59;99439.66;5087117;28;20841;-61
2023/09/20 10:22:21;;;;;;;3.97;2.50;;;;;;;30.62;56.03;99444.91;5087485;28;20234;-61
2023/09/20 10:24:53;;;;;;;6.05;2.40;;;;;;;30.76;54.94;99435.69;5089279;28;20202;-61
2023/09/20 10:27:22;;;;;;;5.05;2.50;;;;;;;31.09;59.51;99436.84;5090782;28;20229;-61
2023/09/20 10:30:02;;;;;;;5.50;2.65;;;;;;;30.70;55.39;99436.63;5090656;28;20206;-61
2023/09/20 10:32:35;;;;;;;3.78;2.83;;;;;;;30.67;54.95;99437.09;5091050;28;20498;-61
2023/09/20 10:35:22;;;;;;;2.85;2.30;;;;;;;30.38;57.55;99438.88;5090666;28;20194;-61
2023/09/20 10:38:22;;;;;;;3.55;2.53;;;;;;;30.78;57.61;99430.97;5090483;28;20686;-61
2023/09/20 10:41:00;;;;;;;3.58;2.50;;;;;;;30.41;56.59;99433.94;5090410;28;20655;-61
2023/09/20 10:43:43;;;;;;;3.67;2.67;;;;;;;30.60;54.26;99434.59;5090712;28;20230;-61
2023/09/20 10:46:12;;;;;;;4.05;2.67;;;;;;;30.86;58.35;99424.53;5090209;28;20648;-61
2023/09/20 10:48:48;;;;;;;3.90;2.88;;;;;;;30.74;55.72;99427.19;5090155;28;20285;-61
2023/09/20 10:51:48;;;;;;;3.67;2.60;;;;;;;30.58;56.88;99433.22;5090260;28;20281;-61
2023/09/20 10:54:22;;;;;;;4.93;2.90;;;;;;;30.90;61.93;99429.13;5090243;28;20206;-61
2023/09/20 10:57:04;;;;;;;3.90;2.83;;;;;;;30.96;56.47;99430.03;5090584;28;20229;-61
2023/09/20 10:59:33;;;;;;;4.53;2.65;;;;;;;31.10;61.77;99423.41;5090333;28;20202;-62
2023/09/20 11:02:12;;;;;;;3.28;2.55;;;;;;;31.30;57.51;99425.63;5090034;28;20202;-61
2023/09/20 11:04:40;;;;;;;3.80;2.80;;;;;;;30.90;51.91;99421.19;5090241;28;20198;-61
2023/09/20 11:07:08;;;;;;;3.97;3.03;;;;;;;30.77;54.55;99424.06;5090226;28;20225;-61
2023/09/20 11:09:35;;;;;;;4.30;2.97;;;;;;;30.81;57.60;99412.06;5089884;28;20202;-61
2023/09/20 11:12:07;;;;;;;3.55;2.80;;;;;;;30.99;54.28;99412.91;5090051;28;20194;-61
2023/09/20 11:14:39;;;;;;;3.75;3.00;;;;;;;31.20;61.88;99409.56;5089803;28;20563;-61
2023/09/20 11:17:06;;;;;;;2.80;2.53;;;;;;;31.17;54.09;99417.97;5090029;28;20198;-61
2023/09/20 11:19:34;;;;;;;4.28;2.90;;;;;;;31.21;54.27;99413.81;5089945;28;20217;-61
2023/09/20 11:22:02;;;;;;;5.90;3.17;;;;;;;31.15;54.85;99408.69;5089732;28;20248;-61
2023/09/20 11:24:29;;;;;;;5.28;3.22;;;;;;;31.33;56.07;99409.28;5089921;28;20255;-61
2023/09/20 11:26:57;;;;;;;4.47;2.92;;;;;;;31.41;53.81;99412.59;5089725;28;20230;-62
2023/09/20 11:29:24;;;;;;;4.63;3.20;;;;;;;31.48;54.42;99407.97;5089645;28;20194;-61
2023/09/20 11:31:56;;;;;;;3.90;2.90;;;;;;;31.52;54.56;99406.44;5089601;28;20237;-61
2023/09/20 11:34:23;;;;;;;4.00;3.28;;;;;;;31.61;58.49;99398.91;5089429;28;20586;-61
2023/09/20 11:36:53;;;;;;;5.00;2.55;;;;;;;31.72;54.67;99396.16;5089310;28;20252;-61
2023/09/20 11:39:27;;;;;;;3.80;2.83;;;;;;;31.72;57.28;99396.16;5089395;28;20202;-61
2023/09/20 11:41:59;;;;;;;3.65;2.85;;;;;;;31.15;51.75;99392.84;5089652;28;20202;-61
2023/09/20 11:44:26;;;;;;;5.22;3.00;;;;;;;30.92;57.33;99385.81;5089412;28;20744;-61
2023/09/20 11:46:55;;;;;;;4.93;2.80;;;;;;;30.82;53.23;99387.25;5089262;28;20288;-61
2023/09/20 11:49:22;;;;;;;3.67;2.85;;;;;;;31.02;58.46;99380.75;5089173;28;20206;-61
2023/09/20 11:51:51;;;;;;;4.40;3.05;;;;;;;31.29;55.89;99381.72;5089088;28;20210;-61
2023/09/20 11:54:17;;;;;;;7.32;3.17;;;;;;;31.34;54.88;99389.75;5089248;28;20666;-61
2023/09/20 11:56:48;;;;;;;4.15;2.97;;;;;;;31.24;55.91;99379.03;5088931;28;20675;-61
2023/09/20 11:59:18;;;;;;;7.63;3.45;;;;;;;30.95;54.02;99375.63;5089212;28;20190;-61
2023/09/20 12:01:46;;;;;;;4.85;3.00;;;;;;;30.84;59.02;99369.34;5089267;28;20471;-61
2023/09/20 12:04:16;;;;;;;3.92;3.00;;;;;;;30.85;57.19;99365.66;5089174;28;20239;-61
2023/09/20 12:06:43;;;;;;;5.97;2.78;;;;;;;31.02;60.13;99354.34;5088997;28;20202;-61
2023/09/20 12:09:12;;;;;;;4.78;3.05;;;;;;;30.87;58.12;99360.94;5088894;28;20201;-62
2023/09/20 12:11:40;;;;;;;4.15;3.03;;;;;;;30.81;54.75;99358.47;5088808;28;20768;-61
2023/09/20 12:14:12;;;;;;;5.22;3.00;;;;;;;31.01;56.07;99355.34;5088649;28;20577;-61
2023/09/20 12:16:39;;;;;;;6.72;3.28;;;;;;;31.11;54.68;99358.19;5088630;28;20222;-62